sensor_id;sensor_type;location;lat;lon;timestamp;temperature;humidity
5828;DHT22;42583;50.240;8.444;2022-07-03T00:00:09;19.40;49.20
5828;DHT22;42583;50.240;8.444;2022-07-03T00:15:09;19.50;49.50
5828;DHT22;42583;50.240;8.444;2022-07-03T00:30:10;19.60;49.60
5828;DHT22;42583;50.240;8.444;2022-07-03T00:45:12;19.50;49.80
5828;DHT22;42583;50.240;8.444;2022-07-03T01:00:15;19.50;50.10
5828;DHT22;42583;50.240;8.444;2022-07-03T01:15:52;19.40;50.50
5828;DHT22;42583;50.240;8.444;2022-07-03T01:30:57;19.20;50.90
5828;DHT22;42583;50.240;8.444;2022-07-03T01:46:02;19.00;51.00
5828;DHT22;42583;50.240;8.444;2022-07-03T02:16:21;19.00;51.20
5828;DHT22;42583;50.240;8.444;2022-07-03T02:31:24;19.10;51.10
5828;DHT22;42583;50.240;8.444;2022-07-03T02:47:00;19.10;51.20
5828;DHT22;42583;50.240;8.444;2022-07-03T03:02:19;19.10;51.50
5828;DHT22;42583;50.240;8.444;2022-07-03T03:17:28;18.90;51.70
5828;DHT22;42583;50.240;8.444;2022-07-03T03:32:30;18.90;52.00
5828;DHT22;42583;50.240;8.444;2022-07-03T03:47:31;18.70;52.00
5828;DHT22;42583;50.240;8.444;2022-07-03T04:02:31;18.60;52.10
5828;DHT22;42583;50.240;8.444;2022-07-03T04:17:32;18.50;52.30
5828;DHT22;42583;50.240;8.444;2022-07-03T04:32:32;18.50;52.60
5828;DHT22;42583;50.240;8.444;2022-07-03T04:47:33;18.60;52.80
5828;DHT22;42583;50.240;8.444;2022-07-03T05:02:34;18.70;53.00
5828;DHT22;42583;50.240;8.444;2022-07-03T05:17:34;18.90;53.20
5828;DHT22;42583;50.240;8.444;2022-07-03T05:32:35;19.00;53.40
5828;DHT22;42583;50.240;8.444;2022-07-03T05:47:36;19.30;53.60
5828;DHT22;42583;50.240;8.444;2022-07-03T06:02:36;19.70;53.50
5828;DHT22;42583;50.240;8.444;2022-07-03T06:17:37;20.00;53.60
5828;DHT22;42583;50.240;8.444;2022-07-03T06:32:37;20.40;53.20
5828;DHT22;42583;50.240;8.444;2022-07-03T06:47:39;20.80;53.20
5828;DHT22;42583;50.240;8.444;2022-07-03T07:02:39;21.40;52.90
5828;DHT22;42583;50.240;8.444;2022-07-03T07:17:40;22.10;52.40
5828;DHT22;42583;50.240;8.444;2022-07-03T07:32:41;22.80;52.50
5828;DHT22;42583;50.240;8.444;2022-07-03T07:47:41;23.30;51.80
5828;DHT22;42583;50.240;8.444;2022-07-03T08:02:43;23.80;51.70
5828;DHT22;42583;50.240;8.444;2022-07-03T08:18:03;24.30;50.90
5828;DHT22;42583;50.240;8.444;2022-07-03T08:33:03;25.00;50.20
5828;DHT22;42583;50.240;8.444;2022-07-03T08:48:05;25.70;49.80
5828;DHT22;42583;50.240;8.444;2022-07-03T09:03:10;26.10;47.70
5828;DHT22;42583;50.240;8.444;2022-07-03T09:18:11;26.90;47.20
5828;DHT22;42583;50.240;8.444;2022-07-03T09:33:19;27.40;45.80
5828;DHT22;42583;50.240;8.444;2022-07-03T09:48:31;27.60;45.20
5828;DHT22;42583;50.240;8.444;2022-07-03T10:03:31;27.40;45.10
5828;DHT22;42583;50.240;8.444;2022-07-03T10:18:36;28.00;45.80
5828;DHT22;42583;50.240;8.444;2022-07-03T10:33:40;29.30;43.60
5828;DHT22;42583;50.240;8.444;2022-07-03T10:49:08;29.90;42.10
5828;DHT22;42583;50.240;8.444;2022-07-03T11:04:10;29.90;41.60
5828;DHT22;42583;50.240;8.444;2022-07-03T11:19:11;30.90;39.70
5828;DHT22;42583;50.240;8.444;2022-07-03T11:34:19;30.50;39.60
5828;DHT22;42583;50.240;8.444;2022-07-03T11:49:21;30.20;39.00
5828;DHT22;42583;50.240;8.444;2022-07-03T12:04:22;30.30;39.40
5828;DHT22;42583;50.240;8.444;2022-07-03T12:19:23;30.90;40.00
5828;DHT22;42583;50.240;8.444;2022-07-03T12:34:24;31.00;37.20
5828;DHT22;42583;50.240;8.444;2022-07-03T12:49:25;29.60;37.80
5828;DHT22;42583;50.240;8.444;2022-07-03T13:04:32;29.80;38.40
5828;DHT22;42583;50.240;8.444;2022-07-03T13:19:33;30.10;38.00
5828;DHT22;42583;50.240;8.444;2022-07-03T13:34:33;30.20;35.10
5828;DHT22;42583;50.240;8.444;2022-07-03T13:49:34;29.50;36.10
5828;DHT22;42583;50.240;8.444;2022-07-03T14:04:35;29.00;35.50
5828;DHT22;42583;50.240;8.444;2022-07-03T14:19:35;28.90;36.80
5828;DHT22;42583;50.240;8.444;2022-07-03T14:34:36;29.50;35.20
5828;DHT22;42583;50.240;8.444;2022-07-03T14:49:37;29.30;35.40
5828;DHT22;42583;50.240;8.444;2022-07-03T15:04:54;29.10;35.10
5828;DHT22;42583;50.240;8.444;2022-07-03T15:19:58;28.60;35.70
5828;DHT22;42583;50.240;8.444;2022-07-03T15:35:01;28.60;36.00
5828;DHT22;42583;50.240;8.444;2022-07-03T15:50:02;28.70;36.40
5828;DHT22;42583;50.240;8.444;2022-07-03T16:20:09;27.90;35.90
5828;DHT22;42583;50.240;8.444;2022-07-03T16:35:27;27.50;36.90
5828;DHT22;42583;50.240;8.444;2022-07-03T16:50:30;27.30;36.50
5828;DHT22;42583;50.240;8.444;2022-07-03T17:05:31;26.90;37.00
5828;DHT22;42583;50.240;8.444;2022-07-03T17:20:39;26.70;37.40
5828;DHT22;42583;50.240;8.444;2022-07-03T17:35:43;26.50;37.90
5828;DHT22;42583;50.240;8.444;2022-07-03T17:50:47;26.30;38.20
5828;DHT22;42583;50.240;8.444;2022-07-03T18:05:51;26.40;38.50
5828;DHT22;42583;50.240;8.444;2022-07-03T18:20:53;26.40;39.60
5828;DHT22;42583;50.240;8.444;2022-07-03T18:35:54;26.00;40.50
5828;DHT22;42583;50.240;8.444;2022-07-03T18:51:03;25.50;42.10
5828;DHT22;42583;50.240;8.444;2022-07-03T19:06:06;25.00;42.90
5828;DHT22;42583;50.240;8.444;2022-07-03T19:21:10;24.50;44.00
5828;DHT22;42583;50.240;8.444;2022-07-03T19:36:10;23.80;45.00
5828;DHT22;42583;50.240;8.444;2022-07-03T19:51:11;23.10;45.80
5828;DHT22;42583;50.240;8.444;2022-07-03T20:06:13;22.50;46.00
5828;DHT22;42583;50.240;8.444;2022-07-03T20:21:14;22.00;46.80
5828;DHT22;42583;50.240;8.444;2022-07-03T20:36:14;21.50;47.40
5828;DHT22;42583;50.240;8.444;2022-07-03T20:51:15;21.10;48.60
5828;DHT22;42583;50.240;8.444;2022-07-03T21:06:18;20.70;48.90
5828;DHT22;42583;50.240;8.444;2022-07-03T21:21:21;20.40;49.30
5828;DHT22;42583;50.240;8.444;2022-07-03T21:36:22;20.10;49.70
5828;DHT22;42583;50.240;8.444;2022-07-03T21:51:23;19.80;50.10
5828;DHT22;42583;50.240;8.444;2022-07-03T22:06:24;19.50;50.40
5828;DHT22;42583;50.240;8.444;2022-07-03T22:21:24;19.30;51.10
5828;DHT22;42583;50.240;8.444;2022-07-03T22:36:25;19.10;51.20
5828;DHT22;42583;50.240;8.444;2022-07-03T22:51:25;18.90;51.30
5828;DHT22;42583;50.240;8.444;2022-07-03T23:06:27;18.80;51.40
5828;DHT22;42583;50.240;8.444;2022-07-03T23:21:27;18.60;51.60
5828;DHT22;42583;50.240;8.444;2022-07-03T23:36:28;18.40;51.80
5828;DHT22;42583;50.240;8.444;2022-07-03T23:51:29;18.10;51.90
